Time,TemperatureF,DewpointF,PressureIn,WindDirection,WindDirectionDegrees,WindSpeedMPH,WindSpeedGustMPH,Humidity,HourlyPrecipIn,Conditions,Clouds,dailyrainin,SolarRadiationWatts/m^2,SoftwareType,DateUTC
2013-02-17 00:00:00,30.1,19.0,29.56,North,0,7.2,13.2,62,0.00,,,-99.99,1.0,HOBO +U30 +Weather +,2013-02-17 05:00:00,
2013-02-17 00:15:00,29.7,19.1,29.55,North,355,7.8,17.9,64,0.00,,,-99.99,1.0,HOBO +U30 +Weather +,2013-02-17 05:15:00,
2013-02-17 00:30:00,29.4,19.1,29.54,North,3,8.7,21.3,65,0.00,,,-99.99,1.0,HOBO +U30 +Weather +,2013-02-17 05:30:00,
2013-02-17 00:45:00,29.1,18.4,29.54,North,355,9.2,18.6,63,0.00,,,-99.99,1.0,HOBO +U30 +Weather +,2013-02-17 05:45:00,
2013-02-17 01:00:00,28.6,18.5,29.54,North,1,7.8,15.4,65,0.00,,,-99.99,1.0,HOBO +U30 +Weather +,2013-02-17 06:00:00,
2013-02-17 01:15:00,27.9,19.4,29.54,North,354,6.7,15.4,70,0.00,,,-99.99,1.0,HOBO +U30 +Weather +,2013-02-17 06:15:00,
2013-02-17 01:30:00,27.4,19.6,29.54,North,351,7.4,15.0,72,0.00,,,-99.99,1.0,HOBO +U30 +Weather +,2013-02-17 06:30:00,
2013-02-17 01:45:00,26.5,19.7,29.51,North,1,7.8,14.5,74,0.00,,,-99.99,1.0,HOBO +U30 +Weather +,2013-02-17 06:45:00,
2013-02-17 02:30:00,25.5,20.8,29.51,North,351,5.8,11.2,82,0.00,,,-99.99,1.0,HOBO +U30 +Weather +,2013-02-17 07:30:00,
2013-02-17 02:45:00,25.5,20.1,29.49,NNW,341,6.3,12.1,79,0.00,,,-99.99,1.0,HOBO +U30 +Weather +,2013-02-17 07:45:00,
2013-02-17 03:00:00,26.2,18.9,29.47,North,352,6.3,15.4,73,0.00,,,-99.99,1.0,HOBO +U30 +Weather +,2013-02-17 08:00:00,
2013-02-17 03:15:00,26.5,16.8,29.47,North,355,3.8,12.5,66,0.00,,,-99.99,1.0,HOBO +U30 +Weather +,2013-02-17 08:15:00,
2013-02-17 03:30:00,26.6,14.9,29.46,North,355,6.7,14.1,60,0.00,,,-99.99,1.0,HOBO +U30 +Weather +,2013-02-17 08:30:00,
2013-02-17 03:45:00,26.4,14.1,29.45,North,350,7.4,19.0,59,0.00,,,-99.99,1.0,HOBO +U30 +Weather +,2013-02-17 08:45:00,
2013-02-17 04:00:00,25.6,14.3,29.44,NNW,345,9.2,21.9,61,0.00,,,-99.99,1.0,HOBO +U30 +Weather +,2013-02-17 09:00:00,
2013-02-17 04:15:00,24.7,15.2,29.44,NNW,337,8.7,25.3,66,0.00,,,-99.99,1.0,HOBO +U30 +Weather +,2013-02-17 09:15:00,
2013-02-17 04:30:00,23.4,16.1,29.43,NNW,337,9.2,23.3,73,0.00,,,-99.99,1.0,HOBO +U30 +Weather +,2013-02-17 09:30:00,
2013-02-17 04:45:00,22.9,17.0,29.43,NNW,336,9.2,17.9,77,0.00,,,-99.99,1.0,HOBO +U30 +Weather +,2013-02-17 09:45:00,
2013-02-17 05:00:00,22.7,17.1,29.43,NNW,336,9.2,19.5,78,0.00,,,-99.99,1.0,HOBO +U30 +Weather +,2013-02-17 10:00:00,
2013-02-17 05:15:00,22.6,16.7,29.42,NNW,338,8.7,18.3,77,0.00,,,-99.99,1.0,HOBO +U30 +Weather +,2013-02-17 10:15:00,
2013-02-17 05:30:00,21.3,15.8,29.41,NNW,333,8.7,16.1,79,0.00,,,-99.99,1.0,HOBO +U30 +Weather +,2013-02-17 10:30:00,
2013-02-17 05:45:00,20.7,17.2,29.41,NNW,334,8.3,19.9,86,0.00,,,-99.99,1.0,HOBO +U30 +Weather +,2013-02-17 10:45:00,
2013-02-17 06:00:00,20.1,17.2,29.40,NW,326,9.2,16.1,88,0.00,,,-99.99,1.0,HOBO +U30 +Weather +,2013-02-17 11:00:00,
2013-02-17 06:15:00,19.7,17.1,29.39,NNW,333,8.7,16.1,89,0.00,,,-99.99,1.0,HOBO +U30 +Weather +,2013-02-17 11:15:00,
2013-02-17 06:30:00,19.6,17.0,29.36,NW,326,8.3,17.9,89,0.00,,,-99.99,1.0,HOBO +U30 +Weather +,2013-02-17 11:30:00,
2013-02-17 06:45:00,19.5,16.8,29.36,NW,324,8.7,18.3,89,0.00,,,-99.99,1.0,HOBO +U30 +Weather +,2013-02-17 11:45:00,
2013-02-17 07:00:00,19.2,16.2,29.35,NNW,327,10.7,21.9,88,0.00,,,-99.99,4.0,HOBO +U30 +Weather +,2013-02-17 12:00:00,
2013-02-17 07:15:00,19.0,15.9,29.34,NW,320,10.7,24.4,87,0.00,,,-99.99,11.0,HOBO +U30 +Weather +,2013-02-17 12:15:00,
2013-02-17 07:30:00,18.7,15.7,29.34,NNW,334,10.3,19.0,88,0.00,,,-99.99,16.0,HOBO +U30 +Weather +,2013-02-17 12:30:00,
2013-02-17 07:45:00,18.6,15.7,29.33,NW,323,9.6,20.4,88,0.00,,,-99.99,22.0,HOBO +U30 +Weather +,2013-02-17 12:45:00,
2013-02-17 08:00:00,18.3,15.4,29.32,NW,324,11.2,21.5,88,0.00,,,-99.99,26.0,HOBO +U30 +Weather +,2013-02-17 13:00:00,
2013-02-17 08:15:00,18.2,15.3,29.31,NW,324,9.2,19.0,88,0.00,,,-99.99,32.0,HOBO +U30 +Weather +,2013-02-17 13:15:00,
2013-02-17 08:30:00,18.2,15.3,29.31,NW,321,10.1,19.5,88,0.00,,,-99.99,36.0,HOBO +U30 +Weather +,2013-02-17 13:30:00,
2013-02-17 08:45:00,18.2,15.5,29.30,NW,323,10.1,23.3,88,0.00,,,-99.99,43.0,HOBO +U30 +Weather +,2013-02-17 13:45:00,
2013-02-17 09:00:00,18.3,15.5,29.28,NW,326,11.6,23.3,88,0.00,,,-99.99,54.0,HOBO +U30 +Weather +,2013-02-17 14:00:00,
2013-02-17 09:15:00,18.2,15.4,29.27,NW,323,11.6,25.3,88,0.00,,,-99.99,66.0,HOBO +U30 +Weather +,2013-02-17 14:15:00,
2013-02-17 09:30:00,18.5,15.5,29.27,NW,326,12.1,24.8,88,0.00,,,-99.99,73.0,HOBO +U30 +Weather +,2013-02-17 14:30:00,
2013-02-17 09:45:00,18.6,15.7,29.26,NW,319,10.3,19.9,88,0.00,,,-99.99,82.0,HOBO +U30 +Weather +,2013-02-17 14:45:00,
2013-02-17 10:00:00,18.4,15.5,29.26,NW,313,10.3,21.5,88,0.00,,,-99.99,88.0,HOBO +U30 +Weather +,2013-02-17 15:00:00,
2013-02-17 10:15:00,18.4,15.5,29.25,NW,317,9.6,17.9,88,0.00,,,-99.99,92.0,HOBO +U30 +Weather +,2013-02-17 15:15:00,
2013-02-17 10:30:00,18.5,15.5,29.25,NW,313,10.7,21.3,88,0.00,,,-99.99,104.0,HOBO +U30 +Weather +,2013-02-17 15:30:00,
2013-02-17 10:45:00,18.7,15.6,29.25,NW,312,10.3,19.9,87,0.00,,,-99.99,107.0,HOBO +U30 +Weather +,2013-02-17 15:45:00,
2013-02-17 11:00:00,18.7,15.5,29.25,NW,305,10.1,19.0,87,0.00,,,-99.99,106.0,HOBO +U30 +Weather +,2013-02-17 16:00:00,
2013-02-17 11:15:00,18.6,15.6,29.25,NW,309,11.2,22.4,87,0.00,,,-99.99,107.0,HOBO +U30 +Weather +,2013-02-17 16:15:00,
2013-02-17 11:30:00,18.7,15.7,29.25,NW,307,10.7,20.4,87,0.00,,,-99.99,112.0,HOBO +U30 +Weather +,2013-02-17 16:30:00,
2013-02-17 11:45:00,18.9,15.7,29.25,NW,305,11.2,24.2,87,0.00,,,-99.99,128.0,HOBO +U30 +Weather +,2013-02-17 16:45:00,
2013-02-17 12:30:00,19.5,15.5,29.25,NW,309,13.0,24.4,84,0.00,,,-99.99,153.0,HOBO +U30 +Weather +,2013-02-17 17:30:00,
2013-02-17 12:45:00,19.9,15.7,29.25,NW,310,11.6,23.3,83,0.00,,,-99.99,156.0,HOBO +U30 +Weather +,2013-02-17 17:45:00,
2013-02-17 13:00:00,20.6,15.4,29.25,NW,307,11.6,22.4,80,0.00,,,-99.99,161.0,HOBO +U30 +Weather +,2013-02-17 18:00:00,
2013-02-17 13:15:00,21.5,13.8,29.25,NW,312,12.1,26.6,72,0.00,,,-99.99,167.0,HOBO +U30 +Weather +,2013-02-17 18:15:00,
2013-02-17 13:30:00,22.4,12.1,29.25,NW,309,12.5,28.2,64,0.00,,,-99.99,164.0,HOBO +U30 +Weather +,2013-02-17 18:30:00,
2013-02-17 13:45:00,22.9,10.8,29.25,NW,312,13.0,25.3,59,0.00,,,-99.99,168.0,HOBO +U30 +Weather +,2013-02-17 18:45:00,
2013-02-17 14:00:00,23.2,9.1,29.25,NW,317,15.0,32.0,54,0.00,,,-99.99,184.0,HOBO +U30 +Weather +,2013-02-17 19:00:00,
2013-02-17 14:15:00,23.5,7.8,29.26,NW,305,13.0,26.6,50,0.00,,,-99.99,182.0,HOBO +U30 +Weather +,2013-02-17 19:15:00,
2013-02-17 14:30:00,22.7,7.2,29.26,WNW,295,12.1,32.0,50,0.00,,,-99.99,151.0,HOBO +U30 +Weather +,2013-02-17 19:30:00,
2013-02-17 14:45:00,22.5,6.6,29.27,WNW,296,13.6,31.5,49,0.00,,,-99.99,151.0,HOBO +U30 +Weather +,2013-02-17 19:45:00,
2013-02-17 15:00:00,22.6,6.0,29.28,WNW,302,13.0,24.8,48,0.00,,,-99.99,132.0,HOBO +U30 +Weather +,2013-02-17 20:00:00,
2013-02-17 16:00:00,22.1,3.8,29.31,WNW,303,14.1,29.5,44,0.00,,,-99.99,71.0,HOBO +U30 +Weather +,2013-02-17 21:00:00,
2013-02-17 16:15:00,22.2,3.6,29.32,NW,310,13.0,36.9,44,0.00,,,-99.99,48.0,HOBO +U30 +Weather +,2013-02-17 21:15:00,
2013-02-17 16:30:00,22.1,3.4,29.33,NW,305,15.0,28.6,43,0.00,,,-99.99,26.0,HOBO +U30 +Weather +,2013-02-17 21:30:00,
2013-02-17 16:45:00,22.1,3.4,29.34,WNW,302,13.6,30.6,43,0.00,,,-99.99,12.0,HOBO +U30 +Weather +,2013-02-17 21:45:00,
2013-02-17 17:00:00,22.2,3.4,29.34,WNW,302,14.5,29.5,43,0.00,,,-99.99,4.0,HOBO +U30 +Weather +,2013-02-17 22:00:00,
2013-02-17 17:45:00,22.0,3.7,29.37,WNW,296,11.6,21.9,44,0.00,,,-99.99,1.0,HOBO +U30 +Weather +,2013-02-17 22:45:00,
2013-02-17 18:00:00,22.0,3.7,29.37,WNW,300,13.0,25.3,44,0.00,,,-99.99,1.0,HOBO +U30 +Weather +,2013-02-17 23:00:00,
2013-02-17 19:00:00,21.6,4.0,29.39,WNW,298,12.5,26.2,45,0.00,,,-99.99,1.0,HOBO +U30 +Weather +,2013-02-18 00:00:00,
2013-02-17 19:15:00,21.6,4.0,29.39,WNW,299,13.2,30.0,46,0.00,,,-99.99,1.0,HOBO +U30 +Weather +,2013-02-18 00:15:00,
2013-02-17 19:30:00,21.5,3.8,29.39,WNW,303,13.2,26.2,45,0.00,,,-99.99,1.0,HOBO +U30 +Weather +,2013-02-18 00:30:00,
2013-02-17 19:45:00,21.4,3.3,29.40,WNW,303,13.6,25.3,44,0.00,,,-99.99,1.0,HOBO +U30 +Weather +,2013-02-18 00:45:00,
2013-02-17 20:00:00,21.3,3.0,29.41,WNW,296,12.1,25.7,44,0.00,,,-99.99,1.0,HOBO +U30 +Weather +,2013-02-18 01:00:00,
2013-02-17 20:15:00,21.2,2.2,29.42,WNW,300,13.6,25.7,43,0.00,,,-99.99,1.0,HOBO +U30 +Weather +,2013-02-18 01:15:00,
2013-02-17 20:30:00,21.0,1.6,29.43,NW,305,13.0,25.7,42,0.00,,,-99.99,1.0,HOBO +U30 +Weather +,2013-02-18 01:30:00,
2013-02-17 20:45:00,20.8,1.2,29.44,NW,307,11.6,22.4,41,0.00,,,-99.99,1.0,HOBO +U30 +Weather +,2013-02-18 01:45:00,
2013-02-17 21:00:00,20.4,1.0,29.45,WNW,299,12.1,27.7,42,0.00,,,-99.99,1.0,HOBO +U30 +Weather +,2013-02-18 02:00:00,
2013-02-17 21:15:00,20.1,0.6,29.46,NW,313,12.5,23.3,41,0.00,,,-99.99,1.0,HOBO +U30 +Weather +,2013-02-18 02:15:00,
2013-02-17 21:30:00,19.7,0.5,29.47,NW,306,12.1,26.6,42,0.00,,,-99.99,1.0,HOBO +U30 +Weather +,2013-02-18 02:30:00,
2013-02-17 21:45:00,19.5,0.2,29.48,WNW,303,13.6,28.2,42,0.00,,,-99.99,1.0,HOBO +U30 +Weather +,2013-02-18 02:45:00,
2013-02-17 22:00:00,19.1,0.0,29.49,NW,307,13.6,29.1,42,0.00,,,-99.99,1.0,HOBO +U30 +Weather +,2013-02-18 03:00:00,
2013-02-17 22:15:00,18.7,0.1,29.50,NW,307,13.0,24.4,43,0.00,,,-99.99,1.0,HOBO +U30 +Weather +,2013-02-18 03:15:00,
2013-02-17 22:30:00,18.2,0.1,29.50,NW,307,13.2,26.6,44,0.00,,,-99.99,1.0,HOBO +U30 +Weather +,2013-02-18 03:30:00,
2013-02-17 22:45:00,17.9,0.2,29.51,WNW,302,12.1,27.3,45,0.00,,,-99.99,1.0,HOBO +U30 +Weather +,2013-02-18 03:45:00,
2013-02-17 23:00:00,17.5,0.2,29.52,NW,306,13.0,26.6,45,0.00,,,-99.99,1.0,HOBO +U30 +Weather +,2013-02-18 04:00:00,
2013-02-17 23:15:00,17.2,0.2,29.52,WNW,299,13.2,23.3,46,0.00,,,-99.99,1.0,HOBO +U30 +Weather +,2013-02-18 04:15:00,
2013-02-17 23:30:00,17.2,0.5,29.52,WNW,303,13.0,22.4,47,0.00,,,-99.99,1.0,HOBO +U30 +Weather +,2013-02-18 04:30:00,
2013-02-17 23:45:00,17.0,0.6,29.53,WNW,303,12.1,24.4,47,0.00,,,-99.99,1.0,HOBO +U30 +Weather +,2013-02-18 04:45:00,